sensor_id;sensor_type;location;lat;lon;timestamp;temperature;humidity
65239;SHT30;51827;51.186;6.926;2023-05-20T00:00:17;21.77;48.13
65239;SHT30;51827;51.186;6.926;2023-05-20T00:01:17;21.80;48.11
65239;SHT30;51827;51.186;6.926;2023-05-20T00:02:17;21.80;48.11
65239;SHT30;51827;51.186;6.926;2023-05-20T00:03:18;21.78;48.08
65239;SHT30;51827;51.186;6.926;2023-05-20T00:04:18;21.78;48.15
65239;SHT30;51827;51.186;6.926;2023-05-20T00:05:18;21.77;48.11
65239;SHT30;51827;51.186;6.926;2023-05-20T00:06:19;21.76;48.12
65239;SHT30;51827;51.186;6.926;2023-05-20T00:07:19;21.80;48.11
65239;SHT30;51827;51.186;6.926;2023-05-20T00:08:19;21.77;48.07
65239;SHT30;51827;51.186;6.926;2023-05-20T00:09:19;21.80;48.12
65239;SHT30;51827;51.186;6.926;2023-05-20T00:10:19;21.77;48.10
65239;SHT30;51827;51.186;6.926;2023-05-20T00:11:22;21.76;48.13
65239;SHT30;51827;51.186;6.926;2023-05-20T00:12:22;21.77;48.13
65239;SHT30;51827;51.186;6.926;2023-05-20T00:13:22;21.74;48.14
65239;SHT30;51827;51.186;6.926;2023-05-20T00:14:22;21.77;48.13
65239;SHT30;51827;51.186;6.926;2023-05-20T00:15:22;21.76;48.16
65239;SHT30;51827;51.186;6.926;2023-05-20T00:16:23;21.78;48.15
65239;SHT30;51827;51.186;6.926;2023-05-20T00:17:23;21.76;48.15
65239;SHT30;51827;51.186;6.926;2023-05-20T00:18:23;21.76;48.12
65239;SHT30;51827;51.186;6.926;2023-05-20T00:19:23;21.76;48.13
65239;SHT30;51827;51.186;6.926;2023-05-20T00:20:23;21.77;48.09
65239;SHT30;51827;51.186;6.926;2023-05-20T00:21:23;21.77;48.14
65239;SHT30;51827;51.186;6.926;2023-05-20T00:22:24;21.76;48.15
65239;SHT30;51827;51.186;6.926;2023-05-20T00:23:24;21.77;48.14
65239;SHT30;51827;51.186;6.926;2023-05-20T00:24:24;21.73;48.13
65239;SHT30;51827;51.186;6.926;2023-05-20T00:25:24;21.76;48.18
65239;SHT30;51827;51.186;6.926;2023-05-20T00:26:24;21.76;48.15
65239;SHT30;51827;51.186;6.926;2023-05-20T00:27:25;21.76;48.16
65239;SHT30;51827;51.186;6.926;2023-05-20T00:28:25;21.76;48.19
65239;SHT30;51827;51.186;6.926;2023-05-20T00:29:25;21.73;48.16
65239;SHT30;51827;51.186;6.926;2023-05-20T00:30:25;21.74;48.20
65239;SHT30;51827;51.186;6.926;2023-05-20T00:31:25;21.76;48.20
65239;SHT30;51827;51.186;6.926;2023-05-20T00:32:25;21.76;48.20
65239;SHT30;51827;51.186;6.926;2023-05-20T00:33:26;21.74;48.21
65239;SHT30;51827;51.186;6.926;2023-05-20T00:34:26;21.76;48.15
65239;SHT30;51827;51.186;6.926;2023-05-20T00:35:26;21.74;48.19
65239;SHT30;51827;51.186;6.926;2023-05-20T00:36:26;21.76;48.16
65239;SHT30;51827;51.186;6.926;2023-05-20T00:37:26;21.74;48.21
65239;SHT30;51827;51.186;6.926;2023-05-20T00:38:26;21.74;48.17
65239;SHT30;51827;51.186;6.926;2023-05-20T00:39:27;21.73;48.19
65239;SHT30;51827;51.186;6.926;2023-05-20T00:40:27;21.74;48.17
65239;SHT30;51827;51.186;6.926;2023-05-20T00:41:27;21.73;48.16
65239;SHT30;51827;51.186;6.926;2023-05-20T00:42:27;21.73;48.21
65239;SHT30;51827;51.186;6.926;2023-05-20T00:43:27;21.73;48.15
65239;SHT30;51827;51.186;6.926;2023-05-20T00:44:28;21.73;48.21
65239;SHT30;51827;51.186;6.926;2023-05-20T00:45:28;21.71;48.22
65239;SHT30;51827;51.186;6.926;2023-05-20T00:46:28;21.71;48.21
65239;SHT30;51827;51.186;6.926;2023-05-20T00:47:29;21.70;48.19
65239;SHT30;51827;51.186;6.926;2023-05-20T00:48:31;21.71;48.15
65239;SHT30;51827;51.186;6.926;2023-05-20T00:49:35;21.71;48.19
65239;SHT30;51827;51.186;6.926;2023-05-20T00:50:35;21.70;48.15
65239;SHT30;51827;51.186;6.926;2023-05-20T00:51:35;21.73;48.20
65239;SHT30;51827;51.186;6.926;2023-05-20T00:52:36;21.73;48.16
65239;SHT30;51827;51.186;6.926;2023-05-20T00:53:36;21.70;48.17
65239;SHT30;51827;51.186;6.926;2023-05-20T00:54:36;21.71;48.18
65239;SHT30;51827;51.186;6.926;2023-05-20T00:55:37;21.71;48.17
65239;SHT30;51827;51.186;6.926;2023-05-20T00:56:37;21.70;48.16
65239;SHT30;51827;51.186;6.926;2023-05-20T00:57:37;21.71;48.17
65239;SHT30;51827;51.186;6.926;2023-05-20T00:58:37;21.70;48.20
65239;SHT30;51827;51.186;6.926;2023-05-20T00:59:38;21.70;48.15
65239;SHT30;51827;51.186;6.926;2023-05-20T01:00:38;21.69;48.18
65239;SHT30;51827;51.186;6.926;2023-05-20T01:01:39;21.70;48.17
65239;SHT30;51827;51.186;6.926;2023-05-20T01:02:39;21.71;48.16
65239;SHT30;51827;51.186;6.926;2023-05-20T01:03:39;21.70;48.14
65239;SHT30;51827;51.186;6.926;2023-05-20T01:04:39;21.70;48.21
65239;SHT30;51827;51.186;6.926;2023-05-20T01:05:40;21.69;48.13
65239;SHT30;51827;51.186;6.926;2023-05-20T01:06:40;21.70;48.16
65239;SHT30;51827;51.186;6.926;2023-05-20T01:07:40;21.69;48.13
65239;SHT30;51827;51.186;6.926;2023-05-20T01:08:40;21.69;48.20
65239;SHT30;51827;51.186;6.926;2023-05-20T01:09:40;21.70;48.17
65239;SHT30;51827;51.186;6.926;2023-05-20T01:10:41;21.70;48.15
65239;SHT30;51827;51.186;6.926;2023-05-20T01:11:46;21.67;48.15
65239;SHT30;51827;51.186;6.926;2023-05-20T01:12:48;21.67;48.20
65239;SHT30;51827;51.186;6.926;2023-05-20T01:13:57;21.70;48.19
65239;SHT30;51827;51.186;6.926;2023-05-20T01:15:12;21.70;48.18
65239;SHT30;51827;51.186;6.926;2023-05-20T01:16:13;21.67;48.18
65239;SHT30;51827;51.186;6.926;2023-05-20T01:17:15;21.66;48.20
65239;SHT30;51827;51.186;6.926;2023-05-20T01:18:15;21.67;48.19
65239;SHT30;51827;51.186;6.926;2023-05-20T01:20:49;21.66;48.19
65239;SHT30;51827;51.186;6.926;2023-05-20T01:21:49;21.66;48.19
65239;SHT30;51827;51.186;6.926;2023-05-20T01:22:52;21.67;48.19
65239;SHT30;51827;51.186;6.926;2023-05-20T01:23:53;21.63;48.18
65239;SHT30;51827;51.186;6.926;2023-05-20T01:24:53;21.66;48.20
65239;SHT30;51827;51.186;6.926;2023-05-20T01:25:53;21.64;48.22
65239;SHT30;51827;51.186;6.926;2023-05-20T01:26:53;21.66;48.21
65239;SHT30;51827;51.186;6.926;2023-05-20T01:27:54;21.66;48.22
65239;SHT30;51827;51.186;6.926;2023-05-20T01:28:55;21.64;48.30
65239;SHT30;51827;51.186;6.926;2023-05-20T01:29:55;21.64;48.25
65239;SHT30;51827;51.186;6.926;2023-05-20T01:30:56;21.64;48.25
65239;SHT30;51827;51.186;6.926;2023-05-20T01:31:57;21.64;48.24
65239;SHT30;51827;51.186;6.926;2023-05-20T01:33:00;21.66;48.25
65239;SHT30;51827;51.186;6.926;2023-05-20T01:34:00;21.66;48.24
65239;SHT30;51827;51.186;6.926;2023-05-20T01:35:01;21.66;48.26
65239;SHT30;51827;51.186;6.926;2023-05-20T01:36:01;21.64;48.22
65239;SHT30;51827;51.186;6.926;2023-05-20T01:37:03;21.63;48.25
65239;SHT30;51827;51.186;6.926;2023-05-20T01:38:04;21.64;48.25
65239;SHT30;51827;51.186;6.926;2023-05-20T01:39:04;21.66;48.22
65239;SHT30;51827;51.186;6.926;2023-05-20T01:40:08;21.63;48.24
65239;SHT30;51827;51.186;6.926;2023-05-20T01:41:08;21.63;48.25
65239;SHT30;51827;51.186;6.926;2023-05-20T01:42:10;21.61;48.34
65239;SHT30;51827;51.186;6.926;2023-05-20T01:43:11;21.64;48.34
65239;SHT30;51827;51.186;6.926;2023-05-20T01:44:11;21.66;48.39
65239;SHT30;51827;51.186;6.926;2023-05-20T01:45:12;21.64;48.38
65239;SHT30;51827;51.186;6.926;2023-05-20T01:46:12;21.63;48.29
65239;SHT30;51827;51.186;6.926;2023-05-20T01:47:12;21.63;48.33
65239;SHT30;51827;51.186;6.926;2023-05-20T01:48:12;21.60;48.45
65239;SHT30;51827;51.186;6.926;2023-05-20T01:49:13;21.63;48.39
65239;SHT30;51827;51.186;6.926;2023-05-20T01:50:13;21.63;48.40
65239;SHT30;51827;51.186;6.926;2023-05-20T01:51:13;21.61;48.39
65239;SHT30;51827;51.186;6.926;2023-05-20T01:52:13;21.63;48.40
65239;SHT30;51827;51.186;6.926;2023-05-20T01:53:13;21.61;48.42
65239;SHT30;51827;51.186;6.926;2023-05-20T01:54:14;21.63;48.37
65239;SHT30;51827;51.186;6.926;2023-05-20T01:55:14;21.61;48.43
65239;SHT30;51827;51.186;6.926;2023-05-20T01:56:14;21.61;48.35
65239;SHT30;51827;51.186;6.926;2023-05-20T01:57:17;21.61;48.39
65239;SHT30;51827;51.186;6.926;2023-05-20T01:58:17;21.61;48.35
65239;SHT30;51827;51.186;6.926;2023-05-20T01:59:17;21.60;48.29
65239;SHT30;51827;51.186;6.926;2023-05-20T02:00:17;21.58;48.32
65239;SHT30;51827;51.186;6.926;2023-05-20T02:01:17;21.61;48.27
65239;SHT30;51827;51.186;6.926;2023-05-20T02:02:17;21.58;48.39
65239;SHT30;51827;51.186;6.926;2023-05-20T02:03:18;21.58;48.42
65239;SHT30;51827;51.186;6.926;2023-05-20T02:04:18;21.61;48.47
65239;SHT30;51827;51.186;6.926;2023-05-20T02:05:18;21.60;48.40
65239;SHT30;51827;51.186;6.926;2023-05-20T02:06:18;21.58;48.46
65239;SHT30;51827;51.186;6.926;2023-05-20T02:07:18;21.61;48.41
65239;SHT30;51827;51.186;6.926;2023-05-20T02:08:18;21.58;48.46
65239;SHT30;51827;51.186;6.926;2023-05-20T02:09:19;21.57;48.48
65239;SHT30;51827;51.186;6.926;2023-05-20T02:10:19;21.61;48.46
65239;SHT30;51827;51.186;6.926;2023-05-20T02:11:19;21.60;48.40
65239;SHT30;51827;51.186;6.926;2023-05-20T02:12:19;21.57;48.41
65239;SHT30;51827;51.186;6.926;2023-05-20T02:13:19;21.57;48.37
65239;SHT30;51827;51.186;6.926;2023-05-20T02:14:19;21.57;48.42
65239;SHT30;51827;51.186;6.926;2023-05-20T02:15:20;21.57;48.53
65239;SHT30;51827;51.186;6.926;2023-05-20T02:16:20;21.57;48.53
65239;SHT30;51827;51.186;6.926;2023-05-20T02:17:20;21.57;48.43
65239;SHT30;51827;51.186;6.926;2023-05-20T02:18:20;21.56;48.42
65239;SHT30;51827;51.186;6.926;2023-05-20T02:19:20;21.57;48.42
65239;SHT30;51827;51.186;6.926;2023-05-20T02:20:20;21.57;48.49
65239;SHT30;51827;51.186;6.926;2023-05-20T02:21:20;21.57;48.53
65239;SHT30;51827;51.186;6.926;2023-05-20T02:22:21;21.54;48.45
65239;SHT30;51827;51.186;6.926;2023-05-20T02:23:21;21.57;48.43
65239;SHT30;51827;51.186;6.926;2023-05-20T02:24:21;21.58;48.38
65239;SHT30;51827;51.186;6.926;2023-05-20T02:25:21;21.57;48.45
65239;SHT30;51827;51.186;6.926;2023-05-20T02:26:21;21.56;48.44
65239;SHT30;51827;51.186;6.926;2023-05-20T02:27:21;21.56;48.37
65239;SHT30;51827;51.186;6.926;2023-05-20T02:28:22;21.54;48.37
65239;SHT30;51827;51.186;6.926;2023-05-20T02:29:22;21.56;48.43
65239;SHT30;51827;51.186;6.926;2023-05-20T02:30:22;21.54;48.42
65239;SHT30;51827;51.186;6.926;2023-05-20T02:31:22;21.57;48.42
65239;SHT30;51827;51.186;6.926;2023-05-20T02:32:22;21.54;48.38
65239;SHT30;51827;51.186;6.926;2023-05-20T02:33:22;21.56;48.39
65239;SHT30;51827;51.186;6.926;2023-05-20T02:34:22;21.56;48.42
65239;SHT30;51827;51.186;6.926;2023-05-20T02:35:23;21.54;48.41
65239;SHT30;51827;51.186;6.926;2023-05-20T02:36:23;21.53;48.40
65239;SHT30;51827;51.186;6.926;2023-05-20T02:37:23;21.54;48.40
65239;SHT30;51827;51.186;6.926;2023-05-20T02:38:23;21.54;48.42
65239;SHT30;51827;51.186;6.926;2023-05-20T02:39:23;21.54;48.45
65239;SHT30;51827;51.186;6.926;2023-05-20T02:40:23;21.51;48.44
65239;SHT30;51827;51.186;6.926;2023-05-20T02:41:24;21.54;48.45
65239;SHT30;51827;51.186;6.926;2023-05-20T02:42:24;21.54;48.40
65239;SHT30;51827;51.186;6.926;2023-05-20T02:43:26;21.53;48.47
65239;SHT30;51827;51.186;6.926;2023-05-20T02:44:26;21.53;48.45
65239;SHT30;51827;51.186;6.926;2023-05-20T02:45:26;21.53;48.44
65239;SHT30;51827;51.186;6.926;2023-05-20T02:46:26;21.54;48.49
65239;SHT30;51827;51.186;6.926;2023-05-20T02:47:26;21.51;48.47
65239;SHT30;51827;51.186;6.926;2023-05-20T02:48:26;21.54;48.47
65239;SHT30;51827;51.186;6.926;2023-05-20T02:49:27;21.51;48.47
65239;SHT30;51827;51.186;6.926;2023-05-20T02:50:27;21.53;48.45
65239;SHT30;51827;51.186;6.926;2023-05-20T02:51:27;21.49;48.43
65239;SHT30;51827;51.186;6.926;2023-05-20T02:52:27;21.53;48.46
65239;SHT30;51827;51.186;6.926;2023-05-20T02:53:27;21.51;48.42
65239;SHT30;51827;51.186;6.926;2023-05-20T02:54:27;21.50;48.42
65239;SHT30;51827;51.186;6.926;2023-05-20T02:55:27;21.53;48.44
65239;SHT30;51827;51.186;6.926;2023-05-20T02:56:28;21.53;48.42
65239;SHT30;51827;51.186;6.926;2023-05-20T02:57:28;21.50;48.46
65239;SHT30;51827;51.186;6.926;2023-05-20T02:58:28;21.50;48.43
65239;SHT30;51827;51.186;6.926;2023-05-20T02:59:28;21.53;48.43
65239;SHT30;51827;51.186;6.926;2023-05-20T03:00:28;21.50;48.48
65239;SHT30;51827;51.186;6.926;2023-05-20T03:01:29;21.49;48.49
65239;SHT30;51827;51.186;6.926;2023-05-20T03:02:29;21.49;48.50
65239;SHT30;51827;51.186;6.926;2023-05-20T03:03:29;21.50;48.48
65239;SHT30;51827;51.186;6.926;2023-05-20T03:04:29;21.49;48.46
65239;SHT30;51827;51.186;6.926;2023-05-20T03:05:29;21.50;48.45
65239;SHT30;51827;51.186;6.926;2023-05-20T03:06:29;21.49;48.54
65239;SHT30;51827;51.186;6.926;2023-05-20T03:07:30;21.50;48.45
65239;SHT30;51827;51.186;6.926;2023-05-20T03:08:30;21.49;48.48
65239;SHT30;51827;51.186;6.926;2023-05-20T03:09:30;21.46;48.50
65239;SHT30;51827;51.186;6.926;2023-05-20T03:10:30;21.46;48.54
65239;SHT30;51827;51.186;6.926;2023-05-20T03:11:31;21.49;48.45
65239;SHT30;51827;51.186;6.926;2023-05-20T03:12:31;21.47;48.49
65239;SHT30;51827;51.186;6.926;2023-05-20T03:13:31;21.49;48.50
65239;SHT30;51827;51.186;6.926;2023-05-20T03:14:31;21.47;48.51
65239;SHT30;51827;51.186;6.926;2023-05-20T03:15:31;21.49;48.50
65239;SHT30;51827;51.186;6.926;2023-05-20T03:16:31;21.46;48.51
65239;SHT30;51827;51.186;6.926;2023-05-20T03:17:32;21.49;48.50
65239;SHT30;51827;51.186;6.926;2023-05-20T03:18:32;21.47;48.50
65239;SHT30;51827;51.186;6.926;2023-05-20T03:19:32;21.50;48.46
65239;SHT30;51827;51.186;6.926;2023-05-20T03:20:33;21.45;48.52
65239;SHT30;51827;51.186;6.926;2023-05-20T03:21:33;21.49;48.50
65239;SHT30;51827;51.186;6.926;2023-05-20T03:22:33;21.47;48.50
65239;SHT30;51827;51.186;6.926;2023-05-20T03:23:33;21.47;48.54
65239;SHT30;51827;51.186;6.926;2023-05-20T03:24:33;21.46;48.50
65239;SHT30;51827;51.186;6.926;2023-05-20T03:25:34;21.47;48.45
65239;SHT30;51827;51.186;6.926;2023-05-20T03:26:35;21.46;48.50
65239;SHT30;51827;51.186;6.926;2023-05-20T03:27:35;21.47;48.50
65239;SHT30;51827;51.186;6.926;2023-05-20T03:28:35;21.45;48.49
65239;SHT30;51827;51.186;6.926;2023-05-20T03:29:35;21.45;48.48
65239;SHT30;51827;51.186;6.926;2023-05-20T03:30:35;21.45;48.46
65239;SHT30;51827;51.186;6.926;2023-05-20T03:31:35;21.46;48.48
65239;SHT30;51827;51.186;6.926;2023-05-20T03:32:36;21.46;48.49
65239;SHT30;51827;51.186;6.926;2023-05-20T03:33:36;21.45;48.48
65239;SHT30;51827;51.186;6.926;2023-05-20T03:34:36;21.45;48.44
65239;SHT30;51827;51.186;6.926;2023-05-20T03:35:36;21.45;48.49
65239;SHT30;51827;51.186;6.926;2023-05-20T03:36:36;21.43;48.46
65239;SHT30;51827;51.186;6.926;2023-05-20T03:37:37;21.45;48.51
65239;SHT30;51827;51.186;6.926;2023-05-20T03:38:37;21.45;48.52
65239;SHT30;51827;51.186;6.926;2023-05-20T03:39:37;21.45;48.55
65239;SHT30;51827;51.186;6.926;2023-05-20T03:40:37;21.45;48.51
65239;SHT30;51827;51.186;6.926;2023-05-20T03:41:37;21.43;48.46
65239;SHT30;51827;51.186;6.926;2023-05-20T03:42:37;21.45;48.50
65239;SHT30;51827;51.186;6.926;2023-05-20T03:43:38;21.46;48.48
65239;SHT30;51827;51.186;6.926;2023-05-20T03:44:38;21.45;48.49
65239;SHT30;51827;51.186;6.926;2023-05-20T03:45:38;21.43;48.51
65239;SHT30;51827;51.186;6.926;2023-05-20T03:46:38;21.45;48.52
65239;SHT30;51827;51.186;6.926;2023-05-20T03:47:38;21.43;48.53
65239;SHT30;51827;51.186;6.926;2023-05-20T03:48:38;21.42;48.51
65239;SHT30;51827;51.186;6.926;2023-05-20T03:49:38;21.42;48.49
65239;SHT30;51827;51.186;6.926;2023-05-20T03:50:39;21.42;48.52
65239;SHT30;51827;51.186;6.926;2023-05-20T03:51:39;21.45;48.52
65239;SHT30;51827;51.186;6.926;2023-05-20T03:52:39;21.43;48.48
65239;SHT30;51827;51.186;6.926;2023-05-20T03:53:39;21.42;48.46
65239;SHT30;51827;51.186;6.926;2023-05-20T03:54:39;21.40;48.42
65239;SHT30;51827;51.186;6.926;2023-05-20T03:55:40;21.42;48.47
65239;SHT30;51827;51.186;6.926;2023-05-20T03:56:40;21.42;48.51
65239;SHT30;51827;51.186;6.926;2023-05-20T03:57:40;21.42;48.52
65239;SHT30;51827;51.186;6.926;2023-05-20T03:58:41;21.40;48.49
65239;SHT30;51827;51.186;6.926;2023-05-20T03:59:41;21.42;48.48
65239;SHT30;51827;51.186;6.926;2023-05-20T04:00:41;21.42;48.47
65239;SHT30;51827;51.186;6.926;2023-05-20T04:01:41;21.40;48.51
65239;SHT30;51827;51.186;6.926;2023-05-20T04:02:42;21.40;48.47
65239;SHT30;51827;51.186;6.926;2023-05-20T04:03:42;21.42;48.51
65239;SHT30;51827;51.186;6.926;2023-05-20T04:04:42;21.42;48.44
65239;SHT30;51827;51.186;6.926;2023-05-20T04:05:42;21.42;48.48
65239;SHT30;51827;51.186;6.926;2023-05-20T04:06:42;21.40;48.53
65239;SHT30;51827;51.186;6.926;2023-05-20T04:07:42;21.40;48.48
65239;SHT30;51827;51.186;6.926;2023-05-20T04:08:43;21.40;48.51
65239;SHT30;51827;51.186;6.926;2023-05-20T04:09:43;21.39;48.49
65239;SHT30;51827;51.186;6.926;2023-05-20T04:10:43;21.42;48.48
65239;SHT30;51827;51.186;6.926;2023-05-20T04:11:43;21.37;48.47
65239;SHT30;51827;51.186;6.926;2023-05-20T04:12:43;21.40;48.47
65239;SHT30;51827;51.186;6.926;2023-05-20T04:13:43;21.39;48.43
65239;SHT30;51827;51.186;6.926;2023-05-20T04:14:43;21.40;48.54
65239;SHT30;51827;51.186;6.926;2023-05-20T04:15:44;21.40;48.49
65239;SHT30;51827;51.186;6.926;2023-05-20T04:16:44;21.40;48.46
65239;SHT30;51827;51.186;6.926;2023-05-20T04:17:44;21.37;48.49
65239;SHT30;51827;51.186;6.926;2023-05-20T04:18:44;21.40;48.47
65239;SHT30;51827;51.186;6.926;2023-05-20T04:19:44;21.42;48.44
65239;SHT30;51827;51.186;6.926;2023-05-20T04:20:45;21.39;48.47
65239;SHT30;51827;51.186;6.926;2023-05-20T04:21:45;21.40;48.47
65239;SHT30;51827;51.186;6.926;2023-05-20T04:22:45;21.39;48.48
65239;SHT30;51827;51.186;6.926;2023-05-20T04:23:45;21.39;48.42
65239;SHT30;51827;51.186;6.926;2023-05-20T04:24:46;21.39;48.46
65239;SHT30;51827;51.186;6.926;2023-05-20T04:25:46;21.37;48.43
65239;SHT30;51827;51.186;6.926;2023-05-20T04:26:46;21.39;48.43
65239;SHT30;51827;51.186;6.926;2023-05-20T04:27:46;21.39;48.44
65239;SHT30;51827;51.186;6.926;2023-05-20T04:28:46;21.37;48.47
65239;SHT30;51827;51.186;6.926;2023-05-20T04:29:46;21.37;48.43
65239;SHT30;51827;51.186;6.926;2023-05-20T04:30:46;21.37;48.42
65239;SHT30;51827;51.186;6.926;2023-05-20T04:31:47;21.39;48.38
65239;SHT30;51827;51.186;6.926;2023-05-20T04:32:47;21.37;48.40
65239;SHT30;51827;51.186;6.926;2023-05-20T04:33:47;21.37;48.37
65239;SHT30;51827;51.186;6.926;2023-05-20T04:34:47;21.37;48.41
65239;SHT30;51827;51.186;6.926;2023-05-20T04:35:47;21.37;48.38
65239;SHT30;51827;51.186;6.926;2023-05-20T04:36:48;21.35;48.38
65239;SHT30;51827;51.186;6.926;2023-05-20T04:37:48;21.39;48.37
65239;SHT30;51827;51.186;6.926;2023-05-20T04:38:48;21.37;48.36
65239;SHT30;51827;51.186;6.926;2023-05-20T04:39:48;21.39;48.35
65239;SHT30;51827;51.186;6.926;2023-05-20T04:40:48;21.39;48.37
65239;SHT30;51827;51.186;6.926;2023-05-20T04:41:48;21.37;48.33
65239;SHT30;51827;51.186;6.926;2023-05-20T04:42:48;21.36;48.33
65239;SHT30;51827;51.186;6.926;2023-05-20T04:43:49;21.37;48.32
65239;SHT30;51827;51.186;6.926;2023-05-20T04:44:49;21.36;48.36
65239;SHT30;51827;51.186;6.926;2023-05-20T04:45:49;21.37;48.38
65239;SHT30;51827;51.186;6.926;2023-05-20T04:46:49;21.36;48.34
65239;SHT30;51827;51.186;6.926;2023-05-20T04:47:49;21.37;48.33
65239;SHT30;51827;51.186;6.926;2023-05-20T04:48:50;21.37;48.37
65239;SHT30;51827;51.186;6.926;2023-05-20T04:49:50;21.36;48.35
65239;SHT30;51827;51.186;6.926;2023-05-20T04:50:50;21.37;48.34
65239;SHT30;51827;51.186;6.926;2023-05-20T04:51:51;21.37;48.33
65239;SHT30;51827;51.186;6.926;2023-05-20T04:52:51;21.36;48.32
65239;SHT30;51827;51.186;6.926;2023-05-20T04:53:51;21.39;48.30
65239;SHT30;51827;51.186;6.926;2023-05-20T04:54:51;21.37;48.26
65239;SHT30;51827;51.186;6.926;2023-05-20T04:55:54;21.37;48.26
65239;SHT30;51827;51.186;6.926;2023-05-20T04:56:55;21.36;48.23
65239;SHT30;51827;51.186;6.926;2023-05-20T04:57:55;21.37;48.27
65239;SHT30;51827;51.186;6.926;2023-05-20T04:58:55;21.36;48.28
65239;SHT30;51827;51.186;6.926;2023-05-20T04:59:55;21.37;48.26
65239;SHT30;51827;51.186;6.926;2023-05-20T05:00:55;21.36;48.29
65239;SHT30;51827;51.186;6.926;2023-05-20T05:01:56;21.37;48.30
65239;SHT30;51827;51.186;6.926;2023-05-20T05:02:56;21.35;48.26
65239;SHT30;51827;51.186;6.926;2023-05-20T05:03:56;21.36;48.27
65239;SHT30;51827;51.186;6.926;2023-05-20T05:04:56;21.37;48.28
65239;SHT30;51827;51.186;6.926;2023-05-20T05:05:57;21.37;48.27
65239;SHT30;51827;51.186;6.926;2023-05-20T05:06:57;21.36;48.28
65239;SHT30;51827;51.186;6.926;2023-05-20T05:07:57;21.36;48.25
65239;SHT30;51827;51.186;6.926;2023-05-20T05:08:57;21.37;48.24
65239;SHT30;51827;51.186;6.926;2023-05-20T05:09:57;21.37;48.30
65239;SHT30;51827;51.186;6.926;2023-05-20T05:10:57;21.36;48.26
65239;SHT30;51827;51.186;6.926;2023-05-20T05:11:58;21.36;48.26
65239;SHT30;51827;51.186;6.926;2023-05-20T05:12:58;21.36;48.17
65239;SHT30;51827;51.186;6.926;2023-05-20T05:13:58;21.37;48.21
65239;SHT30;51827;51.186;6.926;2023-05-20T05:14:58;21.36;48.22
65239;SHT30;51827;51.186;6.926;2023-05-20T05:15:59;21.36;48.20
65239;SHT30;51827;51.186;6.926;2023-05-20T05:16:59;21.37;48.24
65239;SHT30;51827;51.186;6.926;2023-05-20T05:17:59;21.36;48.17
65239;SHT30;51827;51.186;6.926;2023-05-20T05:19:00;21.36;48.15
65239;SHT30;51827;51.186;6.926;2023-05-20T05:20:00;21.36;48.17
65239;SHT30;51827;51.186;6.926;2023-05-20T05:21:03;21.39;48.20
65239;SHT30;51827;51.186;6.926;2023-05-20T05:22:03;21.39;48.15
65239;SHT30;51827;51.186;6.926;2023-05-20T05:23:04;21.35;48.16
65239;SHT30;51827;51.186;6.926;2023-05-20T05:24:04;21.36;48.17
65239;SHT30;51827;51.186;6.926;2023-05-20T05:25:04;21.37;48.15
65239;SHT30;51827;51.186;6.926;2023-05-20T05:26:05;21.36;48.07
65239;SHT30;51827;51.186;6.926;2023-05-20T05:27:05;21.36;48.00
65239;SHT30;51827;51.186;6.926;2023-05-20T05:28:05;21.36;48.00
65239;SHT30;51827;51.186;6.926;2023-05-20T05:29:05;21.35;47.93
65239;SHT30;51827;51.186;6.926;2023-05-20T05:30:05;21.36;47.87
65239;SHT30;51827;51.186;6.926;2023-05-20T05:31:06;21.39;47.82
65239;SHT30;51827;51.186;6.926;2023-05-20T05:32:06;21.37;47.86
65239;SHT30;51827;51.186;6.926;2023-05-20T05:33:06;21.37;47.86
65239;SHT30;51827;51.186;6.926;2023-05-20T05:34:06;21.35;47.78
65239;SHT30;51827;51.186;6.926;2023-05-20T05:35:07;21.35;47.80
65239;SHT30;51827;51.186;6.926;2023-05-20T05:36:07;21.36;47.77
65239;SHT30;51827;51.186;6.926;2023-05-20T05:37:07;21.36;47.81
65239;SHT30;51827;51.186;6.926;2023-05-20T05:38:10;21.37;47.76
65239;SHT30;51827;51.186;6.926;2023-05-20T05:39:10;21.36;47.80
65239;SHT30;51827;51.186;6.926;2023-05-20T05:40:11;21.37;47.78
65239;SHT30;51827;51.186;6.926;2023-05-20T05:41:11;21.37;47.77
65239;SHT30;51827;51.186;6.926;2023-05-20T05:42:11;21.37;47.78
65239;SHT30;51827;51.186;6.926;2023-05-20T05:43:11;21.37;47.82
65239;SHT30;51827;51.186;6.926;2023-05-20T05:44:11;21.33;47.83
65239;SHT30;51827;51.186;6.926;2023-05-20T05:45:11;21.37;47.86
65239;SHT30;51827;51.186;6.926;2023-05-20T05:46:12;21.35;47.85
65239;SHT30;51827;51.186;6.926;2023-05-20T05:47:12;21.37;47.81
65239;SHT30;51827;51.186;6.926;2023-05-20T05:48:12;21.35;47.80
65239;SHT30;51827;51.186;6.926;2023-05-20T05:49:12;21.36;47.80
65239;SHT30;51827;51.186;6.926;2023-05-20T05:50:12;21.37;47.79
65239;SHT30;51827;51.186;6.926;2023-05-20T05:51:13;21.39;47.79
65239;SHT30;51827;51.186;6.926;2023-05-20T05:52:13;21.35;47.80
65239;SHT30;51827;51.186;6.926;2023-05-20T05:53:13;21.37;47.82
65239;SHT30;51827;51.186;6.926;2023-05-20T05:54:13;21.35;47.81
65239;SHT30;51827;51.186;6.926;2023-05-20T05:55:13;21.40;47.80
65239;SHT30;51827;51.186;6.926;2023-05-20T05:56:14;21.37;47.84
65239;SHT30;51827;51.186;6.926;2023-05-20T05:57:14;21.39;47.85
65239;SHT30;51827;51.186;6.926;2023-05-20T05:58:14;21.36;47.80
65239;SHT30;51827;51.186;6.926;2023-05-20T05:59:14;21.40;47.87
65239;SHT30;51827;51.186;6.926;2023-05-20T06:00:15;21.37;47.85
65239;SHT30;51827;51.186;6.926;2023-05-20T06:01:15;21.37;47.88
65239;SHT30;51827;51.186;6.926;2023-05-20T06:02:15;21.37;47.91
65239;SHT30;51827;51.186;6.926;2023-05-20T06:03:15;21.39;47.92
65239;SHT30;51827;51.186;6.926;2023-05-20T06:04:15;21.37;47.91
65239;SHT30;51827;51.186;6.926;2023-05-20T06:05:16;21.37;47.93
65239;SHT30;51827;51.186;6.926;2023-05-20T06:06:16;21.36;47.96
65239;SHT30;51827;51.186;6.926;2023-05-20T06:07:16;21.39;47.93
65239;SHT30;51827;51.186;6.926;2023-05-20T06:08:16;21.37;47.98
65239;SHT30;51827;51.186;6.926;2023-05-20T06:09:16;21.39;47.96
65239;SHT30;51827;51.186;6.926;2023-05-20T06:10:16;21.37;47.93
65239;SHT30;51827;51.186;6.926;2023-05-20T06:11:17;21.37;47.97
65239;SHT30;51827;51.186;6.926;2023-05-20T06:12:17;21.36;47.93
65239;SHT30;51827;51.186;6.926;2023-05-20T06:13:17;21.36;47.92
65239;SHT30;51827;51.186;6.926;2023-05-20T06:14:17;21.37;47.96
65239;SHT30;51827;51.186;6.926;2023-05-20T06:15:17;21.37;47.98
65239;SHT30;51827;51.186;6.926;2023-05-20T06:16:17;21.39;47.96
65239;SHT30;51827;51.186;6.926;2023-05-20T06:17:18;21.39;47.93
65239;SHT30;51827;51.186;6.926;2023-05-20T06:18:18;21.39;47.96
65239;SHT30;51827;51.186;6.926;2023-05-20T06:19:18;21.40;47.97
65239;SHT30;51827;51.186;6.926;2023-05-20T06:20:18;21.39;47.96
65239;SHT30;51827;51.186;6.926;2023-05-20T06:21:18;21.36;47.95
65239;SHT30;51827;51.186;6.926;2023-05-20T06:22:18;21.39;47.91